sensor_id;sensor_type;location;lat;lon;timestamp;P1;durP1;ratioP1;P2;durP2;ratioP2
14092;SDS011;7123;49.468;10.992;2023-07-31T00:00:00;3.70;;;1.80;;
14092;SDS011;7123;49.468;10.992;2023-07-31T00:02:27;4.40;;;1.47;;
14092;SDS011;7123;49.468;10.992;2023-07-31T00:04:53;3.13;;;1.50;;
14092;SDS011;7123;49.468;10.992;2023-07-31T00:07:20;3.90;;;1.43;;
14092;SDS011;7123;49.468;10.992;2023-07-31T00:09:47;5.07;;;1.93;;
14092;SDS011;7123;49.468;10.992;2023-07-31T00:12:14;3.67;;;1.77;;
14092;SDS011;7123;49.468;10.992;2023-07-31T00:14:43;4.00;;;1.40;;
14092;SDS011;7123;49.468;10.992;2023-07-31T00:17:11;4.50;;;1.50;;
14092;SDS011;7123;49.468;10.992;2023-07-31T00:19:38;5.77;;;1.90;;
14092;SDS011;7123;49.468;10.992;2023-07-31T00:22:04;2.83;;;1.40;;
14092;SDS011;7123;49.468;10.992;2023-07-31T00:24:32;3.77;;;1.60;;
14092;SDS011;7123;49.468;10.992;2023-07-31T00:26:58;2.73;;;1.40;;
14092;SDS011;7123;49.468;10.992;2023-07-31T00:29:25;3.33;;;1.50;;
14092;SDS011;7123;49.468;10.992;2023-07-31T00:31:52;4.27;;;1.70;;
14092;SDS011;7123;49.468;10.992;2023-07-31T00:34:18;1.93;;;1.50;;
14092;SDS011;7123;49.468;10.992;2023-07-31T00:36:45;2.37;;;1.40;;
14092;SDS011;7123;49.468;10.992;2023-07-31T00:39:12;3.80;;;1.90;;
14092;SDS011;7123;49.468;10.992;2023-07-31T00:41:39;2.73;;;1.40;;
14092;SDS011;7123;49.468;10.992;2023-07-31T00:44:05;5.07;;;1.70;;
14092;SDS011;7123;49.468;10.992;2023-07-31T00:46:32;4.87;;;1.50;;
14092;SDS011;7123;49.468;10.992;2023-07-31T00:48:59;2.60;;;1.40;;
14092;SDS011;7123;49.468;10.992;2023-07-31T00:51:26;2.50;;;1.57;;
14092;SDS011;7123;49.468;10.992;2023-07-31T00:53:53;2.60;;;1.60;;
14092;SDS011;7123;49.468;10.992;2023-07-31T00:56:20;4.27;;;1.67;;
14092;SDS011;7123;49.468;10.992;2023-07-31T00:58:47;2.73;;;1.30;;
14092;SDS011;7123;49.468;10.992;2023-07-31T01:01:14;5.00;;;1.63;;
14092;SDS011;7123;49.468;10.992;2023-07-31T01:03:42;3.27;;;1.90;;
14092;SDS011;7123;49.468;10.992;2023-07-31T01:11:56;1.90;;;1.40;;
14092;SDS011;7123;49.468;10.992;2023-07-31T01:14:27;6.03;;;1.67;;
14092;SDS011;7123;49.468;10.992;2023-07-31T01:16:54;4.23;;;1.50;;
14092;SDS011;7123;49.468;10.992;2023-07-31T01:19:22;4.67;;;1.80;;
14092;SDS011;7123;49.468;10.992;2023-07-31T01:21:58;6.97;;;1.90;;
14092;SDS011;7123;49.468;10.992;2023-07-31T01:25:10;5.17;;;1.70;;
14092;SDS011;7123;49.468;10.992;2023-07-31T01:27:51;5.23;;;1.47;;
14092;SDS011;7123;49.468;10.992;2023-07-31T01:30:26;3.57;;;1.70;;
14092;SDS011;7123;49.468;10.992;2023-07-31T01:32:59;6.90;;;1.90;;
14092;SDS011;7123;49.468;10.992;2023-07-31T01:35:33;3.23;;;1.90;;
14092;SDS011;7123;49.468;10.992;2023-07-31T01:38:01;3.27;;;1.30;;
14092;SDS011;7123;49.468;10.992;2023-07-31T01:40:27;3.00;;;1.77;;
14092;SDS011;7123;49.468;10.992;2023-07-31T01:42:54;3.97;;;1.60;;
14092;SDS011;7123;49.468;10.992;2023-07-31T01:45:21;4.37;;;1.50;;
14092;SDS011;7123;49.468;10.992;2023-07-31T01:47:48;3.67;;;1.70;;
14092;SDS011;7123;49.468;10.992;2023-07-31T01:50:14;4.23;;;1.77;;
14092;SDS011;7123;49.468;10.992;2023-07-31T01:52:41;2.33;;;1.47;;
14092;SDS011;7123;49.468;10.992;2023-07-31T01:55:08;1.60;;;1.50;;
14092;SDS011;7123;49.468;10.992;2023-07-31T01:57:36;3.43;;;1.40;;
14092;SDS011;7123;49.468;10.992;2023-07-31T02:00:03;4.03;;;1.53;;
14092;SDS011;7123;49.468;10.992;2023-07-31T02:02:31;2.27;;;1.37;;
14092;SDS011;7123;49.468;10.992;2023-07-31T02:04:58;4.70;;;2.23;;
14092;SDS011;7123;49.468;10.992;2023-07-31T02:07:25;1.57;;;1.47;;
14092;SDS011;7123;49.468;10.992;2023-07-31T02:09:51;3.67;;;1.70;;
14092;SDS011;7123;49.468;10.992;2023-07-31T02:12:18;3.73;;;1.60;;
14092;SDS011;7123;49.468;10.992;2023-07-31T02:14:45;2.70;;;1.50;;
14092;SDS011;7123;49.468;10.992;2023-07-31T02:17:11;2.70;;;1.40;;
14092;SDS011;7123;49.468;10.992;2023-07-31T02:19:38;2.80;;;1.33;;
14092;SDS011;7123;49.468;10.992;2023-07-31T02:22:05;4.83;;;1.60;;
14092;SDS011;7123;49.468;10.992;2023-07-31T02:24:32;3.80;;;1.67;;
14092;SDS011;7123;49.468;10.992;2023-07-31T02:26:58;4.37;;;1.70;;
14092;SDS011;7123;49.468;10.992;2023-07-31T02:29:25;2.90;;;1.40;;
14092;SDS011;7123;49.468;10.992;2023-07-31T02:31:52;2.90;;;1.23;;
14092;SDS011;7123;49.468;10.992;2023-07-31T02:34:18;4.50;;;1.70;;
14092;SDS011;7123;49.468;10.992;2023-07-31T02:36:45;2.60;;;1.50;;
14092;SDS011;7123;49.468;10.992;2023-07-31T02:39:12;4.13;;;1.80;;
14092;SDS011;7123;49.468;10.992;2023-07-31T02:41:39;2.60;;;1.70;;
14092;SDS011;7123;49.468;10.992;2023-07-31T02:44:06;2.30;;;1.50;;
14092;SDS011;7123;49.468;10.992;2023-07-31T02:46:32;4.80;;;1.67;;
14092;SDS011;7123;49.468;10.992;2023-07-31T02:48:59;1.80;;;1.60;;
14092;SDS011;7123;49.468;10.992;2023-07-31T02:51:26;3.30;;;1.50;;
14092;SDS011;7123;49.468;10.992;2023-07-31T02:53:52;1.90;;;1.40;;
14092;SDS011;7123;49.468;10.992;2023-07-31T02:56:19;2.77;;;1.63;;
14092;SDS011;7123;49.468;10.992;2023-07-31T02:58:46;3.43;;;1.63;;
14092;SDS011;7123;49.468;10.992;2023-07-31T03:01:13;2.67;;;1.33;;
14092;SDS011;7123;49.468;10.992;2023-07-31T03:03:41;2.70;;;1.67;;
14092;SDS011;7123;49.468;10.992;2023-07-31T03:06:08;2.33;;;1.77;;
14092;SDS011;7123;49.468;10.992;2023-07-31T03:08:35;4.70;;;1.80;;
14092;SDS011;7123;49.468;10.992;2023-07-31T03:11:02;3.40;;;1.70;;
14092;SDS011;7123;49.468;10.992;2023-07-31T03:13:28;2.50;;;1.57;;
14092;SDS011;7123;49.468;10.992;2023-07-31T03:15:55;7.83;;;1.73;;
14092;SDS011;7123;49.468;10.992;2023-07-31T03:18:22;4.33;;;1.60;;
14092;SDS011;7123;49.468;10.992;2023-07-31T03:20:49;3.93;;;1.63;;
14092;SDS011;7123;49.468;10.992;2023-07-31T03:23:16;2.27;;;1.50;;
14092;SDS011;7123;49.468;10.992;2023-07-31T03:25:55;3.47;;;1.67;;
14092;SDS011;7123;49.468;10.992;2023-07-31T03:28:22;1.87;;;1.13;;
14092;SDS011;7123;49.468;10.992;2023-07-31T03:30:50;2.60;;;1.30;;
14092;SDS011;7123;49.468;10.992;2023-07-31T03:33:18;3.27;;;1.60;;
14092;SDS011;7123;49.468;10.992;2023-07-31T03:35:45;3.23;;;1.60;;
14092;SDS011;7123;49.468;10.992;2023-07-31T03:38:12;3.90;;;1.60;;
14092;SDS011;7123;49.468;10.992;2023-07-31T03:40:39;2.13;;;1.40;;
14092;SDS011;7123;49.468;10.992;2023-07-31T03:43:06;3.97;;;1.70;;
14092;SDS011;7123;49.468;10.992;2023-07-31T03:45:33;2.50;;;1.47;;
14092;SDS011;7123;49.468;10.992;2023-07-31T03:47:59;1.40;;;1.30;;
14092;SDS011;7123;49.468;10.992;2023-07-31T03:50:26;4.57;;;1.80;;
14092;SDS011;7123;49.468;10.992;2023-07-31T03:52:53;2.03;;;1.60;;
14092;SDS011;7123;49.468;10.992;2023-07-31T03:55:20;2.97;;;1.60;;
14092;SDS011;7123;49.468;10.992;2023-07-31T03:57:48;4.20;;;1.70;;
14092;SDS011;7123;49.468;10.992;2023-07-31T04:00:15;3.23;;;1.70;;
14092;SDS011;7123;49.468;10.992;2023-07-31T04:02:41;5.03;;;1.73;;
14092;SDS011;7123;49.468;10.992;2023-07-31T04:05:08;3.77;;;1.50;;
14092;SDS011;7123;49.468;10.992;2023-07-31T04:07:35;1.87;;;1.37;;
14092;SDS011;7123;49.468;10.992;2023-07-31T04:10:03;3.30;;;1.40;;
14092;SDS011;7123;49.468;10.992;2023-07-31T04:12:30;2.63;;;1.70;;
14092;SDS011;7123;49.468;10.992;2023-07-31T04:14:56;3.37;;;1.80;;
14092;SDS011;7123;49.468;10.992;2023-07-31T04:17:23;5.30;;;1.50;;
14092;SDS011;7123;49.468;10.992;2023-07-31T04:19:50;2.73;;;1.50;;
14092;SDS011;7123;49.468;10.992;2023-07-31T04:22:17;3.70;;;1.53;;
14092;SDS011;7123;49.468;10.992;2023-07-31T04:24:43;4.33;;;1.70;;
14092;SDS011;7123;49.468;10.992;2023-07-31T04:27:10;5.17;;;1.97;;
14092;SDS011;7123;49.468;10.992;2023-07-31T04:29:37;8.23;;;1.60;;
14092;SDS011;7123;49.468;10.992;2023-07-31T04:32:07;3.67;;;1.70;;
14092;SDS011;7123;49.468;10.992;2023-07-31T04:34:34;1.87;;;1.50;;
14092;SDS011;7123;49.468;10.992;2023-07-31T04:37:01;2.40;;;1.73;;
14092;SDS011;7123;49.468;10.992;2023-07-31T04:39:28;5.67;;;1.70;;
14092;SDS011;7123;49.468;10.992;2023-07-31T04:41:55;2.80;;;1.47;;
14092;SDS011;7123;49.468;10.992;2023-07-31T04:44:21;5.03;;;1.60;;
14092;SDS011;7123;49.468;10.992;2023-07-31T04:46:48;5.07;;;1.30;;
14092;SDS011;7123;49.468;10.992;2023-07-31T04:49:15;2.47;;;1.60;;
14092;SDS011;7123;49.468;10.992;2023-07-31T04:51:41;3.40;;;1.80;;
14092;SDS011;7123;49.468;10.992;2023-07-31T04:54:08;6.20;;;1.60;;
14092;SDS011;7123;49.468;10.992;2023-07-31T04:56:35;3.93;;;1.73;;
14092;SDS011;7123;49.468;10.992;2023-07-31T04:59:02;4.33;;;1.90;;
14092;SDS011;7123;49.468;10.992;2023-07-31T05:01:29;4.47;;;1.80;;
14092;SDS011;7123;49.468;10.992;2023-07-31T05:03:56;2.40;;;1.50;;
14092;SDS011;7123;49.468;10.992;2023-07-31T05:06:22;3.50;;;1.70;;
14092;SDS011;7123;49.468;10.992;2023-07-31T05:08:49;3.57;;;1.53;;
14092;SDS011;7123;49.468;10.992;2023-07-31T05:11:16;2.70;;;1.50;;
14092;SDS011;7123;49.468;10.992;2023-07-31T05:13:42;2.80;;;1.67;;
14092;SDS011;7123;49.468;10.992;2023-07-31T05:16:09;1.73;;;1.50;;
14092;SDS011;7123;49.468;10.992;2023-07-31T05:18:36;5.00;;;1.57;;
14092;SDS011;7123;49.468;10.992;2023-07-31T05:21:03;2.30;;;1.60;;
14092;SDS011;7123;49.468;10.992;2023-07-31T05:23:29;3.30;;;1.77;;
14092;SDS011;7123;49.468;10.992;2023-07-31T05:26:02;1.80;;;1.70;;
14092;SDS011;7123;49.468;10.992;2023-07-31T05:28:34;3.57;;;1.60;;
14092;SDS011;7123;49.468;10.992;2023-07-31T05:31:02;5.17;;;2.00;;
14092;SDS011;7123;49.468;10.992;2023-07-31T05:33:31;4.33;;;1.70;;
14092;SDS011;7123;49.468;10.992;2023-07-31T05:35:57;3.13;;;1.53;;
14092;SDS011;7123;49.468;10.992;2023-07-31T05:38:24;6.10;;;1.90;;
14092;SDS011;7123;49.468;10.992;2023-07-31T05:40:51;2.33;;;1.57;;
14092;SDS011;7123;49.468;10.992;2023-07-31T05:43:19;4.77;;;1.77;;
14092;SDS011;7123;49.468;10.992;2023-07-31T05:45:47;2.37;;;1.70;;
14092;SDS011;7123;49.468;10.992;2023-07-31T05:48:14;4.50;;;1.90;;
14092;SDS011;7123;49.468;10.992;2023-07-31T05:50:40;5.93;;;2.07;;
14092;SDS011;7123;49.468;10.992;2023-07-31T05:53:08;5.97;;;2.40;;
14092;SDS011;7123;49.468;10.992;2023-07-31T05:55:36;4.43;;;2.00;;
14092;SDS011;7123;49.468;10.992;2023-07-31T05:58:03;5.77;;;2.23;;
14092;SDS011;7123;49.468;10.992;2023-07-31T06:00:30;3.00;;;1.90;;
14092;SDS011;7123;49.468;10.992;2023-07-31T06:02:57;6.67;;;2.17;;
14092;SDS011;7123;49.468;10.992;2023-07-31T06:05:23;6.60;;;2.30;;
14092;SDS011;7123;49.468;10.992;2023-07-31T06:07:50;3.70;;;1.97;;
14092;SDS011;7123;49.468;10.992;2023-07-31T06:10:17;5.47;;;2.40;;
14092;SDS011;7123;49.468;10.992;2023-07-31T06:12:44;4.97;;;2.10;;
14092;SDS011;7123;49.468;10.992;2023-07-31T06:15:11;9.03;;;2.63;;
14092;SDS011;7123;49.468;10.992;2023-07-31T06:17:38;8.90;;;2.67;;
14092;SDS011;7123;49.468;10.992;2023-07-31T06:20:06;6.73;;;2.77;;
14092;SDS011;7123;49.468;10.992;2023-07-31T06:22:33;8.43;;;2.90;;
14092;SDS011;7123;49.468;10.992;2023-07-31T06:25:00;6.13;;;2.60;;
14092;SDS011;7123;49.468;10.992;2023-07-31T06:27:26;3.40;;;2.07;;
14092;SDS011;7123;49.468;10.992;2023-07-31T06:29:53;10.13;;;2.70;;
14092;SDS011;7123;49.468;10.992;2023-07-31T06:32:20;5.97;;;2.23;;
14092;SDS011;7123;49.468;10.992;2023-07-31T06:34:47;2.37;;;1.80;;
14092;SDS011;7123;49.468;10.992;2023-07-31T06:37:13;5.30;;;2.30;;
14092;SDS011;7123;49.468;10.992;2023-07-31T06:39:40;2.70;;;1.90;;
14092;SDS011;7123;49.468;10.992;2023-07-31T06:42:07;2.93;;;2.03;;
14092;SDS011;7123;49.468;10.992;2023-07-31T06:44:34;4.53;;;2.33;;
14092;SDS011;7123;49.468;10.992;2023-07-31T06:47:00;2.90;;;1.73;;
14092;SDS011;7123;49.468;10.992;2023-07-31T06:49:27;3.50;;;1.87;;
14092;SDS011;7123;49.468;10.992;2023-07-31T06:51:54;5.80;;;2.17;;
14092;SDS011;7123;49.468;10.992;2023-07-31T06:54:21;6.33;;;2.00;;
14092;SDS011;7123;49.468;10.992;2023-07-31T06:56:47;4.13;;;1.80;;
14092;SDS011;7123;49.468;10.992;2023-07-31T06:59:14;5.03;;;1.70;;
14092;SDS011;7123;49.468;10.992;2023-07-31T07:01:41;4.53;;;1.80;;
14092;SDS011;7123;49.468;10.992;2023-07-31T07:04:07;4.60;;;2.43;;
14092;SDS011;7123;49.468;10.992;2023-07-31T07:06:34;2.63;;;1.87;;
14092;SDS011;7123;49.468;10.992;2023-07-31T07:09:01;3.60;;;2.30;;
14092;SDS011;7123;49.468;10.992;2023-07-31T07:11:28;6.13;;;2.40;;
14092;SDS011;7123;49.468;10.992;2023-07-31T07:13:55;3.87;;;1.80;;
14092;SDS011;7123;49.468;10.992;2023-07-31T07:16:21;4.93;;;2.50;;
14092;SDS011;7123;49.468;10.992;2023-07-31T07:18:48;5.97;;;1.97;;
14092;SDS011;7123;49.468;10.992;2023-07-31T07:21:28;3.43;;;1.83;;
14092;SDS011;7123;49.468;10.992;2023-07-31T07:23:54;3.53;;;2.20;;
14092;SDS011;7123;49.468;10.992;2023-07-31T07:26:21;4.87;;;2.03;;
14092;SDS011;7123;49.468;10.992;2023-07-31T07:28:50;3.30;;;2.03;;
14092;SDS011;7123;49.468;10.992;2023-07-31T07:31:17;3.97;;;1.90;;
14092;SDS011;7123;49.468;10.992;2023-07-31T07:33:44;6.97;;;2.17;;
14092;SDS011;7123;49.468;10.992;2023-07-31T07:36:11;5.00;;;2.23;;
14092;SDS011;7123;49.468;10.992;2023-07-31T07:38:39;4.00;;;2.00;;
14092;SDS011;7123;49.468;10.992;2023-07-31T07:41:07;3.63;;;2.10;;
14092;SDS011;7123;49.468;10.992;2023-07-31T07:43:34;6.47;;;2.00;;
14092;SDS011;7123;49.468;10.992;2023-07-31T07:46:00;8.37;;;2.10;;
14092;SDS011;7123;49.468;10.992;2023-07-31T07:48:27;3.30;;;2.00;;
14092;SDS011;7123;49.468;10.992;2023-07-31T07:50:54;3.93;;;2.00;;
14092;SDS011;7123;49.468;10.992;2023-07-31T07:53:21;5.20;;;2.10;;
14092;SDS011;7123;49.468;10.992;2023-07-31T07:55:47;4.40;;;2.03;;
14092;SDS011;7123;49.468;10.992;2023-07-31T07:58:14;3.83;;;1.87;;
14092;SDS011;7123;49.468;10.992;2023-07-31T08:00:41;3.50;;;2.40;;
14092;SDS011;7123;49.468;10.992;2023-07-31T08:03:08;4.77;;;2.87;;
14092;SDS011;7123;49.468;10.992;2023-07-31T08:05:36;5.07;;;2.30;;
14092;SDS011;7123;49.468;10.992;2023-07-31T08:08:02;3.83;;;1.90;;
14092;SDS011;7123;49.468;10.992;2023-07-31T08:10:29;3.90;;;1.83;;
14092;SDS011;7123;49.468;10.992;2023-07-31T08:12:56;5.67;;;2.20;;
14092;SDS011;7123;49.468;10.992;2023-07-31T08:15:23;3.17;;;2.20;;
14092;SDS011;7123;49.468;10.992;2023-07-31T08:17:49;4.47;;;2.03;;
14092;SDS011;7123;49.468;10.992;2023-07-31T08:20:16;3.53;;;2.17;;
14092;SDS011;7123;49.468;10.992;2023-07-31T08:22:43;4.00;;;2.07;;
14092;SDS011;7123;49.468;10.992;2023-07-31T08:25:10;4.80;;;2.03;;
14092;SDS011;7123;49.468;10.992;2023-07-31T08:27:37;5.27;;;1.80;;
14092;SDS011;7123;49.468;10.992;2023-07-31T08:30:04;3.33;;;2.20;;
14092;SDS011;7123;49.468;10.992;2023-07-31T08:32:31;4.13;;;1.97;;
14092;SDS011;7123;49.468;10.992;2023-07-31T08:34:58;5.50;;;2.30;;
14092;SDS011;7123;49.468;10.992;2023-07-31T08:37:25;5.67;;;2.43;;
14092;SDS011;7123;49.468;10.992;2023-07-31T08:39:51;5.20;;;1.97;;
14092;SDS011;7123;49.468;10.992;2023-07-31T08:42:18;5.87;;;2.27;;
14092;SDS011;7123;49.468;10.992;2023-07-31T08:44:45;2.70;;;2.10;;
14092;SDS011;7123;49.468;10.992;2023-07-31T08:47:13;2.70;;;1.87;;
14092;SDS011;7123;49.468;10.992;2023-07-31T08:49:41;6.87;;;2.23;;
14092;SDS011;7123;49.468;10.992;2023-07-31T08:52:10;5.67;;;2.10;;
14092;SDS011;7123;49.468;10.992;2023-07-31T08:54:36;4.57;;;1.90;;
14092;SDS011;7123;49.468;10.992;2023-07-31T08:57:04;2.97;;;2.00;;
14092;SDS011;7123;49.468;10.992;2023-07-31T08:59:32;3.00;;;2.17;;
14092;SDS011;7123;49.468;10.992;2023-07-31T09:02:03;3.60;;;1.90;;
14092;SDS011;7123;49.468;10.992;2023-07-31T09:04:34;2.77;;;2.07;;
14092;SDS011;7123;49.468;10.992;2023-07-31T09:07:01;4.43;;;2.13;;
14092;SDS011;7123;49.468;10.992;2023-07-31T09:09:31;5.80;;;2.60;;
14092;SDS011;7123;49.468;10.992;2023-07-31T09:11:58;3.50;;;2.30;;
14092;SDS011;7123;49.468;10.992;2023-07-31T09:14:25;5.30;;;2.40;;
14092;SDS011;7123;49.468;10.992;2023-07-31T09:16:53;3.20;;;1.70;;
14092;SDS011;7123;49.468;10.992;2023-07-31T09:19:25;4.77;;;2.00;;
14092;SDS011;7123;49.468;10.992;2023-07-31T09:22:04;8.03;;;2.37;;
14092;SDS011;7123;49.468;10.992;2023-07-31T09:24:32;4.90;;;2.40;;
14092;SDS011;7123;49.468;10.992;2023-07-31T09:27:01;6.33;;;2.50;;
14092;SDS011;7123;49.468;10.992;2023-07-31T09:29:28;3.00;;;2.07;;
14092;SDS011;7123;49.468;10.992;2023-07-31T09:31:58;4.07;;;2.10;;
14092;SDS011;7123;49.468;10.992;2023-07-31T09:34:36;3.50;;;2.40;;
14092;SDS011;7123;49.468;10.992;2023-07-31T09:37:05;3.57;;;1.77;;
14092;SDS011;7123;49.468;10.992;2023-07-31T09:39:32;4.97;;;2.53;;
14092;SDS011;7123;49.468;10.992;2023-07-31T09:42:11;3.03;;;2.20;;
14092;SDS011;7123;49.468;10.992;2023-07-31T09:44:38;4.23;;;2.17;;
14092;SDS011;7123;49.468;10.992;2023-07-31T09:47:06;4.10;;;2.17;;
14092;SDS011;7123;49.468;10.992;2023-07-31T09:49:47;2.40;;;2.03;;
14092;SDS011;7123;49.468;10.992;2023-07-31T09:52:14;3.10;;;1.90;;
14092;SDS011;7123;49.468;10.992;2023-07-31T09:54:41;4.50;;;2.40;;
14092;SDS011;7123;49.468;10.992;2023-07-31T09:57:07;5.13;;;2.03;;
14092;SDS011;7123;49.468;10.992;2023-07-31T09:59:36;5.23;;;1.93;;
14092;SDS011;7123;49.468;10.992;2023-07-31T10:02:03;6.30;;;2.20;;
14092;SDS011;7123;49.468;10.992;2023-07-31T10:04:30;3.43;;;1.97;;
14092;SDS011;7123;49.468;10.992;2023-07-31T10:06:57;4.80;;;2.30;;
14092;SDS011;7123;49.468;10.992;2023-07-31T10:09:25;5.63;;;2.40;;
14092;SDS011;7123;49.468;10.992;2023-07-31T10:11:56;2.73;;;2.10;;
14092;SDS011;7123;49.468;10.992;2023-07-31T10:14:28;3.63;;;2.27;;
14092;SDS011;7123;49.468;10.992;2023-07-31T10:16:57;4.83;;;2.23;;
14092;SDS011;7123;49.468;10.992;2023-07-31T10:19:25;3.37;;;2.10;;
14092;SDS011;7123;49.468;10.992;2023-07-31T10:21:53;3.93;;;2.20;;
14092;SDS011;7123;49.468;10.992;2023-07-31T10:24:22;4.20;;;2.23;;
14092;SDS011;7123;49.468;10.992;2023-07-31T10:26:50;3.90;;;1.83;;
14092;SDS011;7123;49.468;10.992;2023-07-31T10:29:19;3.77;;;1.97;;
14092;SDS011;7123;49.468;10.992;2023-07-31T10:31:48;3.43;;;1.90;;
14092;SDS011;7123;49.468;10.992;2023-07-31T10:34:15;3.33;;;2.10;;
14092;SDS011;7123;49.468;10.992;2023-07-31T10:36:42;4.73;;;2.40;;
14092;SDS011;7123;49.468;10.992;2023-07-31T10:39:42;3.85;;;2.55;;
14092;SDS011;7123;49.468;10.992;2023-07-31T10:42:11;5.60;;;2.10;;
14092;SDS011;7123;49.468;10.992;2023-07-31T10:44:43;6.50;;;2.13;;
14092;SDS011;7123;49.468;10.992;2023-07-31T10:47:14;2.60;;;1.90;;
14092;SDS011;7123;49.468;10.992;2023-07-31T10:49:44;3.33;;;2.20;;
14092;SDS011;7123;49.468;10.992;2023-07-31T10:52:12;6.43;;;2.33;;
14092;SDS011;7123;49.468;10.992;2023-07-31T10:54:40;2.20;;;1.73;;
14092;SDS011;7123;49.468;10.992;2023-07-31T10:57:25;3.65;;;1.77;;
14092;SDS011;7123;49.468;10.992;2023-07-31T10:59:51;3.13;;;2.40;;
14092;SDS011;7123;49.468;10.992;2023-07-31T11:05:45;3.30;;;2.42;;
14092;SDS011;7123;49.468;10.992;2023-07-31T11:08:21;2.10;;;1.90;;
14092;SDS011;7123;49.468;10.992;2023-07-31T11:10:51;5.20;;;2.07;;
14092;SDS011;7123;49.468;10.992;2023-07-31T11:13:33;4.40;;;2.40;;
14092;SDS011;7123;49.468;10.992;2023-07-31T11:16:00;3.73;;;2.30;;
14092;SDS011;7123;49.468;10.992;2023-07-31T11:18:27;4.95;;;2.50;;
14092;SDS011;7123;49.468;10.992;2023-07-31T11:20:55;2.50;;;2.22;;
14092;SDS011;7123;49.468;10.992;2023-07-31T11:23:22;3.50;;;2.00;;
14092;SDS011;7123;49.468;10.992;2023-07-31T11:25:50;2.63;;;2.30;;
14092;SDS011;7123;49.468;10.992;2023-07-31T11:28:17;8.05;;;2.20;;
14092;SDS011;7123;49.468;10.992;2023-07-31T11:30:45;2.83;;;2.30;;
14092;SDS011;7123;49.468;10.992;2023-07-31T11:33:13;4.55;;;2.60;;
14092;SDS011;7123;49.468;10.992;2023-07-31T11:35:42;4.10;;;2.83;;
14092;SDS011;7123;49.468;10.992;2023-07-31T11:38:21;3.27;;;2.27;;
14092;SDS011;7123;49.468;10.992;2023-07-31T11:40:52;4.18;;;2.80;;
14092;SDS011;7123;49.468;10.992;2023-07-31T11:43:20;3.37;;;2.13;;
14092;SDS011;7123;49.468;10.992;2023-07-31T11:45:48;5.60;;;2.70;;
14092;SDS011;7123;49.468;10.992;2023-07-31T11:48:23;3.17;;;2.23;;
14092;SDS011;7123;49.468;10.992;2023-07-31T11:50:50;4.82;;;2.40;;
14092;SDS011;7123;49.468;10.992;2023-07-31T11:53:19;6.83;;;2.60;;
14092;SDS011;7123;49.468;10.992;2023-07-31T11:55:49;3.67;;;2.20;;
14092;SDS011;7123;49.468;10.992;2023-07-31T11:58:17;4.20;;;2.50;;
14092;SDS011;7123;49.468;10.992;2023-07-31T12:00:45;5.60;;;2.40;;
14092;SDS011;7123;49.468;10.992;2023-07-31T12:03:12;4.97;;;2.43;;
14092;SDS011;7123;49.468;10.992;2023-07-31T12:05:39;2.63;;;2.28;;
14092;SDS011;7123;49.468;10.992;2023-07-31T12:08:09;4.23;;;2.47;;
14092;SDS011;7123;49.468;10.992;2023-07-31T12:10:37;3.53;;;2.47;;
14092;SDS011;7123;49.468;10.992;2023-07-31T12:13:10;5.07;;;2.57;;
14092;SDS011;7123;49.468;10.992;2023-07-31T12:15:46;4.47;;;2.35;;
14092;SDS011;7123;49.468;10.992;2023-07-31T12:18:13;3.40;;;2.22;;
14092;SDS011;7123;49.468;10.992;2023-07-31T12:20:45;3.30;;;2.10;;
14092;SDS011;7123;49.468;10.992;2023-07-31T12:23:18;4.15;;;2.55;;
14092;SDS011;7123;49.468;10.992;2023-07-31T12:28:28;4.32;;;2.63;;
14092;SDS011;7123;49.468;10.992;2023-07-31T12:30:59;4.78;;;2.47;;
14092;SDS011;7123;49.468;10.992;2023-07-31T12:33:36;2.70;;;2.50;;
14092;SDS011;7123;49.468;10.992;2023-07-31T12:36:09;3.60;;;2.47;;
14092;SDS011;7123;49.468;10.992;2023-07-31T12:38:41;2.85;;;2.33;;
14092;SDS011;7123;49.468;10.992;2023-07-31T12:41:08;2.65;;;2.30;;
14092;SDS011;7123;49.468;10.992;2023-07-31T12:43:35;3.70;;;2.40;;
14092;SDS011;7123;49.468;10.992;2023-07-31T12:46:03;3.88;;;2.10;;
14092;SDS011;7123;49.468;10.992;2023-07-31T12:48:30;6.03;;;2.57;;
14092;SDS011;7123;49.468;10.992;2023-07-31T12:50:58;4.97;;;2.13;;
14092;SDS011;7123;49.468;10.992;2023-07-31T12:53:25;3.08;;;2.30;;
14092;SDS011;7123;49.468;10.992;2023-07-31T12:55:51;3.47;;;2.33;;
14092;SDS011;7123;49.468;10.992;2023-07-31T12:58:18;2.40;;;1.90;;
14092;SDS011;7123;49.468;10.992;2023-07-31T13:00:45;7.27;;;2.63;;
14092;SDS011;7123;49.468;10.992;2023-07-31T13:03:12;3.53;;;2.47;;
14092;SDS011;7123;49.468;10.992;2023-07-31T13:05:39;2.43;;;2.17;;
14092;SDS011;7123;49.468;10.992;2023-07-31T13:08:06;4.17;;;2.10;;
14092;SDS011;7123;49.468;10.992;2023-07-31T13:10:33;3.08;;;2.10;;
14092;SDS011;7123;49.468;10.992;2023-07-31T13:13:00;5.50;;;2.60;;
14092;SDS011;7123;49.468;10.992;2023-07-31T13:15:27;3.92;;;2.20;;
14092;SDS011;7123;49.468;10.992;2023-07-31T13:17:54;3.20;;;2.50;;
14092;SDS011;7123;49.468;10.992;2023-07-31T13:20:21;5.20;;;2.53;;
14092;SDS011;7123;49.468;10.992;2023-07-31T13:22:48;2.88;;;2.20;;
14092;SDS011;7123;49.468;10.992;2023-07-31T13:25:15;5.05;;;2.28;;
14092;SDS011;7123;49.468;10.992;2023-07-31T13:27:42;3.42;;;2.30;;
14092;SDS011;7123;49.468;10.992;2023-07-31T13:30:08;3.60;;;2.10;;
14092;SDS011;7123;49.468;10.992;2023-07-31T13:32:35;3.95;;;2.20;;
14092;SDS011;7123;49.468;10.992;2023-07-31T13:35:06;3.30;;;2.33;;
14092;SDS011;7123;49.468;10.992;2023-07-31T13:37:33;2.90;;;2.13;;
14092;SDS011;7123;49.468;10.992;2023-07-31T13:40:01;6.05;;;2.20;;
14092;SDS011;7123;49.468;10.992;2023-07-31T13:42:28;9.40;;;2.60;;
14092;SDS011;7123;49.468;10.992;2023-07-31T13:44:55;3.70;;;2.47;;
14092;SDS011;7123;49.468;10.992;2023-07-31T13:47:22;2.70;;;2.25;;
14092;SDS011;7123;49.468;10.992;2023-07-31T13:49:49;6.85;;;2.30;;
14092;SDS011;7123;49.468;10.992;2023-07-31T13:52:16;3.00;;;2.67;;
14092;SDS011;7123;49.468;10.992;2023-07-31T13:54:43;3.88;;;2.60;;
14092;SDS011;7123;49.468;10.992;2023-07-31T13:57:10;5.35;;;2.80;;
14092;SDS011;7123;49.468;10.992;2023-07-31T13:59:37;3.60;;;2.28;;
14092;SDS011;7123;49.468;10.992;2023-07-31T14:02:03;3.60;;;2.50;;
14092;SDS011;7123;49.468;10.992;2023-07-31T14:04:30;3.65;;;2.30;;
14092;SDS011;7123;49.468;10.992;2023-07-31T14:06:58;4.88;;;2.38;;
14092;SDS011;7123;49.468;10.992;2023-07-31T14:09:26;4.43;;;2.80;;
14092;SDS011;7123;49.468;10.992;2023-07-31T14:11:54;3.00;;;2.50;;
14092;SDS011;7123;49.468;10.992;2023-07-31T14:14:21;2.95;;;2.50;;
14092;SDS011;7123;49.468;10.992;2023-07-31T14:16:48;4.50;;;2.20;;
14092;SDS011;7123;49.468;10.992;2023-07-31T14:19:15;5.22;;;2.75;;
14092;SDS011;7123;49.468;10.992;2023-07-31T14:21:42;3.70;;;2.70;;
14092;SDS011;7123;49.468;10.992;2023-07-31T14:24:22;2.60;;;2.40;;
14092;SDS011;7123;49.468;10.992;2023-07-31T14:26:49;2.95;;;2.55;;
14092;SDS011;7123;49.468;10.992;2023-07-31T14:29:16;5.05;;;2.53;;
14092;SDS011;7123;49.468;10.992;2023-07-31T14:31:43;5.38;;;2.42;;
14092;SDS011;7123;49.468;10.992;2023-07-31T14:34:09;4.60;;;2.65;;
14092;SDS011;7123;49.468;10.992;2023-07-31T14:36:36;3.58;;;2.47;;
14092;SDS011;7123;49.468;10.992;2023-07-31T14:39:03;6.63;;;2.90;;
14092;SDS011;7123;49.468;10.992;2023-07-31T14:41:30;3.13;;;2.67;;
14092;SDS011;7123;49.468;10.992;2023-07-31T14:43:57;3.97;;;2.42;;
14092;SDS011;7123;49.468;10.992;2023-07-31T14:46:24;5.28;;;2.60;;
14092;SDS011;7123;49.468;10.992;2023-07-31T14:48:50;3.80;;;2.58;;
14092;SDS011;7123;49.468;10.992;2023-07-31T14:51:17;4.05;;;2.97;;
14092;SDS011;7123;49.468;10.992;2023-07-31T14:53:44;4.25;;;2.75;;
14092;SDS011;7123;49.468;10.992;2023-07-31T14:56:13;4.33;;;2.37;;
14092;SDS011;7123;49.468;10.992;2023-07-31T14:58:39;5.32;;;2.72;;
14092;SDS011;7123;49.468;10.992;2023-07-31T15:01:06;3.92;;;2.65;;
14092;SDS011;7123;49.468;10.992;2023-07-31T15:03:33;5.88;;;3.08;;